Time;durP1;ratioP1;P1;durP2;ratioP2;P2;SDS_P1;SDS_P2;PMS_P1;PMS_P2;Temp;Humidity;BMP_temperature;BMP_pressure;BME280_temperature;BME280_humidity;BME280_pressure;Samples;Min_cycle;Max_cycle;Signal;HPM_P1;HPM_P2
2021/10/09 00:01:08;;;;;;;;;;;;;;;8.09;62.72;102144.34;1614872;88;20450;-73
2021/10/09 00:03:35;;;;;;;;;;;;;;;8.06;62.73;102136.62;1614498;87;21067;-73
2021/10/09 00:06:02;;;;;;;;;;;;;;;8.05;62.47;102144.17;1614590;87;20510;-73
2021/10/09 00:08:28;;;;;;;;;;;;;;;8.04;62.49;102141.98;1593205;88;20186;-77
2021/10/09 00:10:56;;;;;;;;;;;;;;;8.03;62.98;102135.05;1615560;87;20099;-73
2021/10/09 00:13:21;;;;;;;;;;;;;;;8.00;63.11;102139.63;1615119;87;20184;-73
2021/10/09 00:15:47;;;;;;;;;;;;;;;7.97;63.21;102134.09;1614929;88;21295;-73
2021/10/09 00:18:12;;;;;;;;;;;;;;;7.93;63.37;102137.83;1624251;87;20186;-74
2021/10/09 00:20:38;;;;;;;;;;;;;;;7.94;62.86;102134.72;1620150;87;20164;-73
2021/10/09 00:23:05;;;;;;;;;;;;;;;7.89;62.98;102135.86;1619911;87;21239;-73
2021/10/09 00:25:31;;;;;;;;;;;;;;;8.00;62.99;102139.63;1623806;87;20216;-73
2021/10/09 00:27:57;;;;;;;;;;;;;;;7.90;62.92;102140.16;1619779;87;21129;-73
2021/10/09 00:30:22;;;;;;;;;;;;;;;7.88;63.12;102145.98;1619888;88;20138;-75
2021/10/09 00:32:48;;;;;;;;;;;;;;;7.85;63.28;102150.11;1619422;87;20603;-74
2021/10/09 00:35:13;;;;;;;;;;;;;;;7.71;63.88;102146.13;1621131;87;20159;-74
2021/10/09 00:37:39;;;;;;;;;;;;;;;7.65;64.03;102150.42;1621920;87;20161;-74
2021/10/09 00:40:06;;;;;;;;;;;;;;;7.62;64.19;102148.80;1619816;87;21220;-73
2021/10/09 00:42:31;;;;;;;;;;;;;;;7.43;64.88;102145.54;1620574;87;20181;-75
2021/10/09 00:44:57;;;;;;;;;;;;;;;7.47;64.54;102149.22;1620270;87;20578;-73
2021/10/09 00:47:24;;;;;;;;;;;;;;;7.47;64.59;102150.53;1621909;87;20195;-74
2021/10/09 00:49:50;;;;;;;;;;;;;;;7.40;64.87;102147.86;1618947;87;20289;-76
2021/10/09 00:52:17;;;;;;;;;;;;;;;7.32;64.91;102137.78;1626066;87;21910;-74
2021/10/09 00:54:44;;;;;;;;;;;;;;;7.27;65.36;102140.27;1619724;87;20163;-72
2021/10/09 00:57:13;;;;;;;;;;;;;;;7.24;65.55;102146.56;1624380;87;20192;-74
2021/10/09 00:59:39;;;;;;;;;;;;;;;7.18;65.56;102145.11;1624218;87;20237;-72
2021/10/09 01:02:07;;;;;;;;;;;;;;;7.22;65.34;102147.57;1620859;87;20221;-73
2021/10/09 01:04:33;;;;;;;;;;;;;;;7.18;65.86;102146.42;1621566;87;21071;-73
2021/10/09 01:07:00;;;;;;;;;;;;;;;7.14;66.07;102143.58;1622151;87;20133;-73
2021/10/09 01:09:26;;;;;;;;;;;;;;;7.12;66.12;102140.20;1620110;87;20235;-73
2021/10/09 01:11:51;;;;;;;;;;;;;;;6.93;67.21;102140.80;1586166;88;20401;-72
2021/10/09 01:14:17;;;;;;;;;;;;;;;6.87;67.32;102141.14;1622823;87;20821;-75
2021/10/09 01:16:45;;;;;;;;;;;;;;;6.88;67.32;102144.16;1616211;88;21215;-74
2021/10/09 01:19:10;;;;;;;;;;;;;;;6.70;68.28;102141.59;1612774;87;20504;-73
2021/10/09 01:21:43;;;;;;;;;;;;;;;6.58;69.20;102142.24;1613763;87;20156;-73
2021/10/09 01:24:11;;;;;;;;;;;;;;;6.56;69.05;102140.17;1614226;87;20520;-73
2021/10/09 01:26:38;;;;;;;;;;;;;;;6.52;69.28;102137.31;1610847;88;20161;-74
2021/10/09 01:29:05;;;;;;;;;;;;;;;6.45;69.84;102139.42;1611528;87;21817;-72
2021/10/09 01:31:31;;;;;;;;;;;;;;;6.41;69.91;102136.09;1613658;87;20599;-72
2021/10/09 01:33:59;;;;;;;;;;;;;;;6.38;70.11;102135.41;1612634;87;20233;-73
2021/10/09 01:36:33;;;;;;;;;;;;;;;6.29;70.56;102138.03;1611451;87;21047;-74
2021/10/09 01:38:59;;;;;;;;;;;;;;;6.24;70.99;102143.99;1611533;87;20221;-74
2021/10/09 01:41:26;;;;;;;;;;;;;;;6.19;71.17;102140.77;1611597;87;21201;-74
2021/10/09 01:43:52;;;;;;;;;;;;;;;6.16;71.27;102143.55;1615299;87;20176;-73
2021/10/09 01:46:17;;;;;;;;;;;;;;;6.04;71.79;102143.69;1611489;88;20196;-73
2021/10/09 01:48:43;;;;;;;;;;;;;;;6.10;71.19;102142.91;1615961;87;20149;-73
2021/10/09 01:51:10;;;;;;;;;;;;;;;6.13;71.08;102139.77;1612672;88;20250;-75
2021/10/09 01:53:37;;;;;;;;;;;;;;;6.18;70.80;102148.23;1610799;87;21122;-74
2021/10/09 01:56:02;;;;;;;;;;;;;;;6.06;71.21;102141.39;1614061;87;20508;-77
2021/10/09 01:58:28;;;;;;;;;;;;;;;6.04;71.43;102145.84;1610882;87;20413;-73
2021/10/09 02:00:54;;;;;;;;;;;;;;;6.00;71.72;102144.32;1611951;87;20152;-73
2021/10/09 02:03:21;;;;;;;;;;;;;;;6.09;71.17;102138.61;1614407;87;20211;-74
2021/10/09 02:05:49;;;;;;;;;;;;;;;6.16;70.76;102140.92;1612325;87;21080;-75
2021/10/09 02:08:16;;;;;;;;;;;;;;;6.17;70.76;102137.35;1612323;87;20193;-72
2021/10/09 02:10:49;;;;;;;;;;;;;;;6.14;70.77;102139.69;1613351;87;20690;-72
2021/10/09 02:13:11;;;;;;;;;;;;;;;6.20;70.44;102135.88;1614469;87;20199;-72
2021/10/09 02:15:42;;;;;;;;;;;;;;;6.24;70.10;102134.81;1613163;87;20179;-72
2021/10/09 02:26:20;;;;;;;;;;;;;;;6.28;69.82;102125.39;1609905;87;20144;-75
2021/10/09 02:28:45;;;;;;;;;;;;;;;6.28;69.87;102131.11;1615380;87;20789;-73
2021/10/09 02:31:11;;;;;;;;;;;;;;;6.30;69.85;102131.87;1613631;87;21943;-73
2021/10/09 02:33:36;;;;;;;;;;;;;;;6.27;70.16;102135.97;1589675;87;20149;-73
2021/10/09 02:36:02;;;;;;;;;;;;;;;6.30;69.79;102130.56;1614591;87;20503;-74
2021/10/09 02:38:28;;;;;;;;;;;;;;;6.29;70.29;102130.16;1613521;87;20571;-73
2021/10/09 02:40:53;;;;;;;;;;;;;;;6.32;70.15;102124.76;1612725;87;20146;-73
2021/10/09 02:43:19;;;;;;;;;;;;;;;6.30;70.10;102129.25;1613384;87;21170;-74
2021/10/09 02:45:45;;;;;;;;;;;;;;;6.32;69.80;102125.23;1614940;87;20173;-73
2021/10/09 02:48:11;;;;;;;;;;;;;;;6.32;69.91;102137.04;1616354;87;20481;-74
2021/10/09 02:50:37;;;;;;;;;;;;;;;6.32;69.72;102133.94;1611326;87;20109;-73
2021/10/09 02:53:02;;;;;;;;;;;;;;;6.31;69.80;102140.14;1612160;87;20155;-75
2021/10/09 02:55:28;;;;;;;;;;;;;;;6.26;70.06;102140.81;1614095;88;21215;-73
2021/10/09 02:57:54;;;;;;;;;;;;;;;6.27;69.65;102142.52;1613233;87;20639;-73
2021/10/09 03:00:21;;;;;;;;;;;;;;;6.24;69.88;102142.68;1613517;87;20186;-73
2021/10/09 03:02:47;;;;;;;;;;;;;;;6.23;69.94;102139.66;1612985;87;20141;-72
2021/10/09 03:05:12;;;;;;;;;;;;;;;6.23;70.12;102137.04;1613007;88;20161;-74
2021/10/09 03:07:39;;;;;;;;;;;;;;;6.25;69.87;102139.14;1612828;87;21913;-75
2021/10/09 03:10:05;;;;;;;;;;;;;;;6.22;69.84;102134.05;1610904;87;20190;-72
2021/10/09 03:12:31;;;;;;;;;;;;;;;6.22;70.03;102137.98;1613070;87;20124;-72
2021/10/09 03:14:56;;;;;;;;;;;;;;;6.24;69.70;102136.95;1610964;88;20690;-74
2021/10/09 03:17:22;;;;;;;;;;;;;;;6.23;69.92;102139.22;1614267;87;20356;-73
2021/10/09 03:19:48;;;;;;;;;;;;;;;6.23;69.76;102133.11;1611934;87;20989;-74
2021/10/09 03:22:13;;;;;;;;;;;;;;;6.25;69.89;102133.89;1624749;87;20151;-76
2021/10/09 03:24:39;;;;;;;;;;;;;;;6.23;69.76;102127.41;1617617;88;20176;-72
2021/10/09 03:27:05;;;;;;;;;;;;;;;6.23;69.67;102126.10;1625890;87;20223;-78
2021/10/09 03:29:32;;;;;;;;;;;;;;;6.24;69.74;102136.95;1608595;87;20454;-72
2021/10/09 03:31:58;;;;;;;;;;;;;;;6.24;69.85;102132.19;1622052;86;21142;-72
2021/10/09 03:34:23;;;;;;;;;;;;;;;6.23;69.95;102135.28;1621211;88;20135;-72
2021/10/09 03:36:51;;;;;;;;;;;;;;;6.23;69.86;102134.41;1623620;87;20156;-74
2021/10/09 03:39:20;;;;;;;;;;;;;;;6.20;69.87;102135.44;1621232;87;20262;-73
2021/10/09 03:41:50;;;;;;;;;;;;;;;6.20;69.84;102137.20;1623222;86;20158;-73
2021/10/09 03:44:12;;;;;;;;;;;;;;;6.21;69.78;102128.41;1621004;87;20119;-73
2021/10/09 03:46:44;;;;;;;;;;;;;;;6.20;69.81;102130.64;1623104;86;20745;-72
2021/10/09 03:49:26;;;;;;;;;;;;;;;6.19;69.91;102135.52;1624844;87;20157;-73
2021/10/09 03:54:34;;;;;;;;;;;;;;;5.96;71.15;102133.55;1622297;87;20471;-73
2021/10/09 03:56:59;;;;;;;;;;;;;;;5.88;71.55;102129.16;1622094;87;21095;-75
2021/10/09 03:59:25;;;;;;;;;;;;;;;5.86;71.78;102134.95;1625708;87;20626;-74
2021/10/09 04:01:51;;;;;;;;;;;;;;;5.89;71.40;102134.81;1621536;87;20177;-73
2021/10/09 04:04:18;;;;;;;;;;;;;;;5.80;72.12;102133.95;1619629;87;20137;-72
2021/10/09 04:06:44;;;;;;;;;;;;;;;5.74;72.43;102133.31;1621125;86;20588;-73
2021/10/09 04:09:09;;;;;;;;;;;;;;;5.68;72.66;102124.44;1623021;86;22068;-74
2021/10/09 04:11:35;;;;;;;;;;;;;;;5.67;72.72;102125.38;1625115;86;20168;-73
2021/10/09 04:14:00;;;;;;;;;;;;;;;5.75;72.09;102129.77;1621946;86;20166;-75
2021/10/09 04:16:27;;;;;;;;;;;;;;;5.74;72.18;102130.69;1620244;86;20215;-74
2021/10/09 04:18:55;;;;;;;;;;;;;;;5.81;71.65;102130.39;1615020;87;20191;-74
2021/10/09 04:21:20;;;;;;;;;;;;;;;5.86;71.36;102128.41;1612073;87;21093;-74
2021/10/09 04:23:48;;;;;;;;;;;;;;;5.89;71.50;102130.41;1587029;88;20209;-73
2021/10/09 04:26:13;;;;;;;;;;;;;;;5.92;71.01;102128.94;1610670;88;20176;-75
2021/10/09 04:28:39;;;;;;;;;;;;;;;5.91;71.09;102129.02;1611937;87;20124;-72
2021/10/09 04:31:06;;;;;;;;;;;;;;;5.93;71.09;102127.16;1615673;87;20540;-73
2021/10/09 04:33:31;;;;;;;;;;;;;;;5.94;70.85;102126.23;1612558;87;22047;-74
2021/10/09 04:35:57;;;;;;;;;;;;;;;5.90;71.13;102124.69;1611161;87;20250;-75
2021/10/09 04:38:22;;;;;;;;;;;;;;;5.91;70.90;102125.08;1615375;87;20450;-76
2021/10/09 04:40:48;;;;;;;;;;;;;;;5.83;71.04;102129.39;1594547;88;20611;-74
2021/10/09 04:43:14;;;;;;;;;;;;;;;5.83;71.06;102129.39;1614167;87;20132;-74
2021/10/09 04:45:39;;;;;;;;;;;;;;;5.83;70.98;102124.63;1613971;88;21131;-76
2021/10/09 04:48:05;;;;;;;;;;;;;;;5.79;71.27;102128.31;1614713;87;20230;-73
2021/10/09 04:50:35;;;;;;;;;;;;;;;5.78;71.42;102134.47;1612881;88;20311;-74
2021/10/09 04:53:01;;;;;;;;;;;;;;;5.78;71.47;102127.91;1614909;87;20176;-73
2021/10/09 04:55:30;;;;;;;;;;;;;;;5.75;71.62;102135.02;1612792;87;20192;-73
2021/10/09 04:57:56;;;;;;;;;;;;;;;5.79;71.54;102137.02;1590834;88;21242;-73
2021/10/09 05:00:22;;;;;;;;;;;;;;;5.79;71.79;102134.39;1612246;87;20568;-74
2021/10/09 05:02:48;;;;;;;;;;;;;;;5.80;71.98;102137.41;1613001;87;20366;-73
2021/10/09 05:05:16;;;;;;;;;;;;;;;5.79;71.84;102133.08;1611143;87;20584;-75
2021/10/09 05:07:42;;;;;;;;;;;;;;;5.79;71.98;102138.33;1613188;87;20487;-76
2021/10/09 05:10:09;;;;;;;;;;;;;;;5.79;73.32;102139.64;1611852;87;21139;-76
2021/10/09 05:12:40;;;;;;;;;;;;;;;5.84;74.46;102138.09;1609686;87;20134;-73
2021/10/09 05:15:06;;;;;;;;;;;;;;;5.82;73.92;102145.20;1615392;87;20488;-74
2021/10/09 05:17:31;;;;;;;;;;;;;;;5.87;73.22;102147.12;1612019;87;20677;-74
2021/10/09 05:19:57;;;;;;;;;;;;;;;5.84;73.71;102140.28;1602829;88;20202;-79
2021/10/09 05:22:22;;;;;;;;;;;;;;;5.83;73.32;102145.13;1606216;88;21909;-78
2021/10/09 05:24:52;;;;;;;;;;;;;;;5.89;73.00;102138.27;1603691;88;20303;-73
2021/10/09 05:27:16;;;;;;;;;;;;;;;5.94;72.54;102134.94;1605155;88;20149;-75
2021/10/09 05:29:43;;;;;;;;;;;;;;;6.02;72.23;102135.91;1603010;88;20196;-74
2021/10/09 05:32:09;;;;;;;;;;;;;;;6.03;71.66;102138.92;1603421;88;20606;-76
2021/10/09 05:34:34;;;;;;;;;;;;;;;6.07;71.60;102139.60;1604226;88;21113;-75
2021/10/09 05:37:00;;;;;;;;;;;;;;;6.06;71.50;102145.33;1604934;88;20153;-74
2021/10/09 05:39:26;;;;;;;;;;;;;;;6.10;71.17;102142.91;1577193;89;20618;-76
2021/10/09 05:41:51;;;;;;;;;;;;;;;6.13;70.96;102138.45;1605009;88;20141;-74
2021/10/09 05:44:17;;;;;;;;;;;;;;;6.16;70.81;102139.61;1604349;87;20184;-75
2021/10/09 05:46:43;;;;;;;;;;;;;;;6.17;70.69;102146.53;1601841;89;21152;-75
2021/10/09 05:49:09;;;;;;;;;;;;;;;6.15;70.69;102153.64;1605415;88;20475;-74
2021/10/09 05:51:38;;;;;;;;;;;;;;;6.17;70.61;102145.22;1606951;88;20203;-77
2021/10/09 05:54:10;;;;;;;;;;;;;;;6.14;70.67;102148.00;1602156;88;20480;-73
2021/10/09 05:56:42;;;;;;;;;;;;;;;6.13;70.67;102148.95;1605051;88;20169;-72
2021/10/09 06:47:42;;;;;;;;;;;;;;;6.32;70.91;102178.55;1614110;87;20172;-75
2021/10/09 07:00:52;;;;;;;;;;;;;;;6.59;70.49;102192.04;1611569;87;20144;-77
2021/10/09 07:03:18;;;;;;;;;;;;;;;6.62;70.50;102193.66;1611061;87;20173;-80
2021/10/09 07:05:44;;;;;;;;;;;;;;;6.69;70.35;102189.77;1611068;87;20579;-74
2021/10/09 07:08:10;;;;;;;;;;;;;;;6.77;69.95;102195.46;1616273;87;20166;-76
2021/10/09 07:10:41;;;;;;;;;;;;;;;6.85;69.82;102197.68;1614181;87;20211;-74
2021/10/09 07:13:07;;;;;;;;;;;;;;;6.89;69.83;102199.70;1613545;88;20604;-73
2021/10/09 07:15:33;;;;;;;;;;;;;;;6.94;69.61;102202.45;1612883;87;20851;-74
2021/10/09 07:17:58;;;;;;;;;;;;;;;7.01;69.43;102203.83;1612970;87;21148;-74
2021/10/09 07:20:24;;;;;;;;;;;;;;;7.05;69.50;102204.50;1611582;87;20150;-74
2021/10/09 07:22:50;;;;;;;;;;;;;;;7.13;69.35;102207.59;1616118;87;20196;-75
2021/10/09 07:25:16;;;;;;;;;;;;;;;7.18;69.33;102206.02;1621632;86;20460;-79
2021/10/09 07:27:41;;;;;;;;;;;;;;;7.25;69.17;102207.84;1617307;87;20262;-77
2021/10/09 07:30:10;;;;;;;;;;;;;;;7.22;69.43;102214.10;1595579;87;20749;-79
2021/10/09 07:32:35;;;;;;;;;;;;;;;7.25;69.62;102210.47;1614735;87;20285;-77
2021/10/09 07:35:01;;;;;;;;;;;;;;;7.32;69.54;102220.56;1617008;87;20249;-75
2021/10/09 07:37:27;;;;;;;;;;;;;;;7.44;69.99;102223.00;1614762;87;20152;-76
2021/10/09 07:39:54;;;;;;;;;;;;;;;7.54;69.53;102225.48;1620224;87;20153;-79
2021/10/09 07:42:20;;;;;;;;;;;;;;;7.58;69.65;102228.77;1618492;87;21100;-77
2021/10/09 07:44:46;;;;;;;;;;;;;;;7.63;69.67;102223.27;1613870;87;20507;-74
2021/10/09 07:47:13;;;;;;;;;;;;;;;7.63;69.66;102221.95;1618981;87;20203;-74
2021/10/09 07:49:41;;;;;;;;;;;;;;;7.75;69.53;102223.89;1613917;87;20190;-76
2021/10/09 07:52:09;;;;;;;;;;;;;;;7.81;69.39;102227.48;1618118;87;20225;-76
2021/10/09 07:54:35;;;;;;;;;;;;;;;7.91;69.30;102225.20;1612821;87;21097;-76
2021/10/09 07:57:01;;;;;;;;;;;;;;;8.02;69.00;102224.59;1616819;87;20454;-76
2021/10/09 07:59:26;;;;;;;;;;;;;;;8.13;68.46;102237.13;1615271;87;20177;-75
2021/10/09 08:01:52;;;;;;;;;;;;;;;8.17;67.48;102231.61;1611533;87;20155;-76
2021/10/09 08:04:19;;;;;;;;;;;;;;;8.21;66.98;102230.47;1611450;87;20217;-73
2021/10/09 08:06:44;;;;;;;;;;;;;;;8.36;68.27;102227.87;1616810;87;21279;-77
2021/10/09 08:09:11;;;;;;;;;;;;;;;8.47;67.19;102233.41;1613961;87;20905;-75
2021/10/09 08:11:37;;;;;;;;;;;;;;;8.58;67.02;102228.33;1611447;87;20229;-79
2021/10/09 08:14:03;;;;;;;;;;;;;;;8.69;66.31;102229.48;1616705;87;20213;-75
2021/10/09 08:16:29;;;;;;;;;;;;;;;8.77;66.11;102225.43;1613123;87;20188;-75
2021/10/09 08:18:57;;;;;;;;;;;;;;;8.89;66.07;102231.75;1611452;87;21127;-75
2021/10/09 08:21:25;;;;;;;;;;;;;;;8.95;65.40;102222.16;1606817;88;20438;-74
2021/10/09 08:23:56;;;;;;;;;;;;;;;9.03;63.89;102220.84;1604015;88;20103;-78
2021/10/09 08:39:42;;;;;;;;;;;;;;;9.55;62.96;102219.34;1602221;88;20096;-76
2021/10/09 08:42:09;;;;;;;;;;;;;;;9.65;62.15;102219.97;1604003;88;20483;-79
2021/10/09 08:44:35;;;;;;;;;;;;;;;9.84;61.42;102219.61;1603796;87;21163;-77
2021/10/09 08:47:00;;;;;;;;;;;;;;;9.99;60.49;102212.49;1605686;87;20533;-75
2021/10/09 08:49:26;;;;;;;;;;;;;;;10.12;60.54;102216.95;1602313;87;20292;-75
2021/10/09 08:51:52;;;;;;;;;;;;;;;10.24;60.64;102210.86;1607948;88;20170;-75
2021/10/09 08:54:17;;;;;;;;;;;;;;;10.35;59.56;102200.44;1607779;88;20151;-75
2021/10/09 08:56:47;;;;;;;;;;;;;;;10.51;58.84;102207.33;1607330;88;21172;-79
2021/10/09 08:59:24;;;;;;;;;;;;;;;10.63;58.76;102209.13;1607237;88;20198;-76
2021/10/09 09:02:15;;;;;;;;;;;;;;;10.69;58.29;102200.78;1609463;88;20156;-75
2021/10/09 09:04:50;;;;;;;;;;;;;;;10.81;57.73;102203.51;1606184;88;20211;-80
2021/10/09 09:40:14;;;;;;;;;;;;;;;11.79;50.48;102200.44;1612577;87;20487;-75
2021/10/09 09:42:47;;;;;;;;;;;;;;;11.88;50.00;102198.89;1588309;87;20130;-74
2021/10/09 09:45:16;;;;;;;;;;;;;;;11.94;49.87;102196.30;1590038;88;21078;-75
2021/10/09 09:47:42;;;;;;;;;;;;;;;12.02;49.36;102199.22;1609597;87;20201;-73
2021/10/09 09:50:09;;;;;;;;;;;;;;;12.03;48.60;102193.80;1611123;87;21126;-74
2021/10/09 09:52:37;;;;;;;;;;;;;;;12.10;47.96;102190.20;1609636;87;20168;-76
2021/10/09 09:55:04;;;;;;;;;;;;;;;12.16;48.01;102187.09;1611900;87;20157;-78
2021/10/09 09:57:31;;;;;;;;;;;;;;;12.26;47.84;102190.37;1608633;87;20183;-75
2021/10/09 09:59:57;;;;;;;;;;;;;;;12.29;47.57;102183.05;1585736;88;20172;-74
2021/10/09 10:02:25;;;;;;;;;;;;;;;12.36;47.88;102180.77;1613552;88;21197;-74
2021/10/09 10:04:51;;;;;;;;;;;;;;;12.48;47.93;102179.83;1608504;88;20176;-75
2021/10/09 10:07:17;;;;;;;;;;;;;;;12.57;47.53;102176.46;1610316;88;20214;-75
2021/10/09 10:09:44;;;;;;;;;;;;;;;12.67;47.14;102177.07;1612055;87;20460;-76
2021/10/09 10:12:10;;;;;;;;;;;;;;;12.73;46.89;102169.97;1613375;88;20180;-75
2021/10/09 10:14:38;;;;;;;;;;;;;;;12.80;46.58;102172.48;1611467;88;21178;-73
2021/10/09 10:17:03;;;;;;;;;;;;;;;12.85;46.44;102169.00;1609107;88;20167;-74
2021/10/09 10:19:52;;;;;;;;;;;;;;;13.00;46.11;102162.11;1610510;88;20191;-74
2021/10/09 10:22:31;;;;;;;;;;;;;;;13.09;46.28;102162.70;1591272;88;20305;-76
2021/10/09 10:24:56;;;;;;;;;;;;;;;13.14;45.47;102163.16;1589287;88;20230;-74
2021/10/09 10:27:38;;;;;;;;;;;;;;;13.22;45.67;102155.45;1597816;88;39489;-74
2021/10/09 10:30:22;;;;;;;;;;;;;;;13.28;44.80;102154.95;1594773;88;20227;-73
2021/10/09 10:32:56;;;;;;;;;;;;;;;13.35;45.37;102162.45;1591721;88;20176;-76
2021/10/09 10:35:34;;;;;;;;;;;;;;;13.39;45.12;102157.23;1591069;88;20229;-76
2021/10/09 10:38:03;;;;;;;;;;;;;;;13.49;44.80;102162.16;1589934;88;20441;-76
2021/10/09 10:40:54;;;;;;;;;;;;;;;13.52;44.81;102155.27;1585311;88;21266;-73
2021/10/09 10:43:39;;;;;;;;;;;;;;;13.55;43.77;102148.38;1585993;88;20245;-75
2021/10/09 10:46:28;;;;;;;;;;;;;;;13.54;44.27;102150.67;1588925;88;20136;-73
2021/10/09 10:48:58;;;;;;;;;;;;;;;13.47;43.45;102145.53;1589930;88;21022;-74
2021/10/09 10:51:43;;;;;;;;;;;;;;;13.48;43.76;102141.88;1591101;88;20154;-75
2021/10/09 10:54:15;;;;;;;;;;;;;;;13.55;44.16;102140.42;1588056;88;20602;-74
2021/10/09 10:57:03;;;;;;;;;;;;;;;13.61;43.54;102139.05;1592714;88;20184;-75
2021/10/09 10:59:31;;;;;;;;;;;;;;;13.67;43.41;102143.02;1592986;88;20174;-73
2021/10/09 11:02:16;;;;;;;;;;;;;;;13.72;43.70;102130.20;1594175;88;20576;-74
2021/10/09 11:04:57;;;;;;;;;;;;;;;13.74;43.57;102136.24;1593711;88;20490;-80
2021/10/09 11:07:33;;;;;;;;;;;;;;;13.78;43.84;102135.00;1589707;88;21297;-74
2021/10/09 11:10:11;;;;;;;;;;;;;;;13.83;42.81;102131.49;1588902;88;20151;-73
2021/10/09 11:12:48;;;;;;;;;;;;;;;13.79;42.74;102123.41;1586411;88;20196;-74
2021/10/09 11:15:28;;;;;;;;;;;;;;;13.81;43.37;102124.98;1588981;88;20152;-72
2021/10/09 11:17:52;;;;;;;;;;;;;;;13.87;43.82;102127.59;1587307;88;20184;-75
2021/10/09 11:20:23;;;;;;;;;;;;;;;13.85;42.94;102125.55;1593150;88;21376;-73
2021/10/09 11:22:49;;;;;;;;;;;;;;;13.85;43.14;102120.24;1607120;87;20131;-73
2021/10/09 11:25:24;;;;;;;;;;;;;;;13.88;43.48;102123.97;1609569;87;20202;-74
2021/10/09 11:27:50;;;;;;;;;;;;;;;13.87;43.51;102119.62;1608036;87;20205;-75
2021/10/09 11:30:16;;;;;;;;;;;;;;;13.86;43.53;102118.42;1601974;87;20228;-75
2021/10/09 11:32:42;;;;;;;;;;;;;;;13.88;43.28;102111.19;1606835;87;21092;-79
2021/10/09 11:35:11;;;;;;;;;;;;;;;13.98;43.81;102114.27;1614212;87;20208;-76
2021/10/09 11:37:51;;;;;;;;;;;;;;;14.06;43.82;102107.44;1617364;87;20138;-76
2021/10/09 11:40:40;;;;;;;;;;;;;;;14.13;43.57;102109.44;1612782;87;20234;-75
2021/10/09 11:56:31;;;;;;;;;;;;;;;14.40;43.14;102096.06;1614043;87;20133;-78
2021/10/09 11:58:59;;;;;;;;;;;;;;;14.40;42.11;102092.58;1587861;87;21039;-75
2021/10/09 12:01:30;;;;;;;;;;;;;;;14.49;42.87;102087.79;1610450;87;20173;-76
2021/10/09 12:03:57;;;;;;;;;;;;;;;14.62;42.41;102087.11;1594364;87;20150;-77
2021/10/09 12:06:27;;;;;;;;;;;;;;;14.74;42.01;102079.02;1619335;87;20182;-75
2021/10/09 12:08:54;;;;;;;;;;;;;;;14.82;42.33;102079.17;1611252;87;20175;-76
2021/10/09 12:11:24;;;;;;;;;;;;;;;14.90;41.84;102079.34;1611997;87;21006;-76
2021/10/09 12:13:56;;;;;;;;;;;;;;;14.96;41.74;102080.59;1589773;87;20148;-76
2021/10/09 12:16:30;;;;;;;;;;;;;;;15.04;41.81;102081.61;1617569;87;20156;-75
2021/10/09 12:19:04;;;;;;;;;;;;;;;15.16;41.98;102075.64;1613678;87;20265;-77
2021/10/09 12:21:39;;;;;;;;;;;;;;;15.10;41.37;102082.02;1612781;87;20136;-75
2021/10/09 12:24:17;;;;;;;;;;;;;;;15.22;40.58;102076.42;1616056;87;22145;-75
2021/10/09 12:26:44;;;;;;;;;;;;;;;15.17;40.51;102076.51;1611980;87;21137;-75
2021/10/09 12:29:17;;;;;;;;;;;;;;;15.14;40.54;102068.80;1614678;87;20174;-77
2021/10/09 12:31:45;;;;;;;;;;;;;;;15.19;40.89;102070.55;1614130;87;20116;-76
2021/10/09 12:34:33;;;;;;;;;;;;;;;15.32;40.33;102073.78;1614818;87;20491;-77
2021/10/09 12:37:14;;;;;;;;;;;;;;;15.36;40.34;102071.67;1613837;87;21085;-74
2021/10/09 12:39:40;;;;;;;;;;;;;;;15.42;40.32;102062.62;1611784;87;20224;-75
2021/10/09 12:42:06;;;;;;;;;;;;;;;15.39;40.87;102063.41;1610161;87;20215;-74
2021/10/09 12:44:33;;;;;;;;;;;;;;;15.43;41.47;102059.49;1611307;87;20656;-74
2021/10/09 12:46:59;;;;;;;;;;;;;;;15.58;43.43;102051.89;1610479;87;20219;-73
2021/10/09 12:49:24;;;;;;;;;;;;;;;15.69;40.94;102059.75;1589876;88;21200;-73
2021/10/09 12:51:50;;;;;;;;;;;;;;;15.76;40.10;102055.51;1611092;87;20461;-73
2021/10/09 12:54:18;;;;;;;;;;;;;;;15.88;40.26;102048.70;1612507;87;20228;-73
2021/10/09 12:56:45;;;;;;;;;;;;;;;16.01;40.17;102051.07;1609031;87;20118;-74
2021/10/09 12:59:11;;;;;;;;;;;;;;;16.12;39.91;102053.05;1613286;88;20201;-73
2021/10/09 13:01:37;;;;;;;;;;;;;;;16.17;40.30;102038.45;1614392;88;21922;-73
2021/10/09 13:04:05;;;;;;;;;;;;;;;16.30;39.17;102040.30;1586045;88;20205;-79
2021/10/09 13:06:31;;;;;;;;;;;;;;;16.36;39.92;102043.72;1609632;87;20174;-72
2021/10/09 13:08:57;;;;;;;;;;;;;;;16.46;39.33;102036.98;1608474;87;20157;-78
2021/10/09 13:11:29;;;;;;;;;;;;;;;16.50;40.78;102041.05;1611327;87;20217;-79
2021/10/09 13:13:52;;;;;;;;;;;;;;;16.47;38.95;102041.34;1609425;87;20147;-75
2021/10/09 13:16:18;;;;;;;;;;;;;;;16.44;38.34;102037.14;1590197;88;20505;-74
2021/10/09 13:18:45;;;;;;;;;;;;;;;16.50;38.32;102033.87;1609809;87;20538;-73
2021/10/09 13:21:13;;;;;;;;;;;;;;;16.55;39.08;102032.09;1614997;87;20186;-73
2021/10/09 13:23:40;;;;;;;;;;;;;;;16.66;39.43;102028.38;1613242;87;20153;-73
2021/10/09 13:26:06;;;;;;;;;;;;;;;16.62;38.62;102029.66;1617406;87;21144;-74
2021/10/09 13:28:32;;;;;;;;;;;;;;;16.70;38.41;102028.41;1617453;86;20185;-74
2021/10/09 13:30:57;;;;;;;;;;;;;;;16.87;38.38;102024.11;1614061;87;20161;-72
2021/10/09 13:33:23;;;;;;;;;;;;;;;17.03;38.04;102022.12;1611133;87;20765;-74
2021/10/09 13:35:49;;;;;;;;;;;;;;;17.11;38.22;102019.52;1613277;87;20185;-74
2021/10/09 13:38:15;;;;;;;;;;;;;;;17.21;37.98;102013.61;1611596;87;21124;-73
2021/10/09 13:40:41;;;;;;;;;;;;;;;17.29;40.19;102013.31;1615065;87;20225;-72
2021/10/09 13:43:11;;;;;;;;;;;;;;;17.28;38.55;102005.81;1613496;87;20196;-73
2021/10/09 13:45:34;;;;;;;;;;;;;;;17.40;39.77;102010.39;1612462;87;20202;-72
2021/10/09 13:47:59;;;;;;;;;;;;;;;17.46;37.76;102007.09;1606609;87;20169;-72
2021/10/09 13:50:32;;;;;;;;;;;;;;;17.50;40.54;102006.31;1613281;87;21155;-75
2021/10/09 13:52:54;;;;;;;;;;;;;;;17.61;39.66;102007.38;1613087;87;20164;-79
2021/10/09 13:55:20;;;;;;;;;;;;;;;17.94;38.64;102004.45;1615293;87;21250;-75
2021/10/09 13:57:45;;;;;;;;;;;;;;;18.31;37.50;101999.74;1617058;87;20146;-75
2021/10/09 14:00:11;;;;;;;;;;;;;;;23.15;30.69;102000.92;1615172;87;20462;-74
2021/10/09 14:02:37;;;;;;;;;;;;;;;26.40;24.70;101993.80;1614680;87;20702;-74
2021/10/09 14:05:03;;;;;;;;;;;;;;;28.05;22.60;101994.52;1614180;87;20169;-74
2021/10/09 14:07:30;;;;;;;;;;;;;;;29.53;22.30;101996.09;1612163;87;20280;-75
2021/10/09 14:09:56;;;;;;;;;;;;;;;30.22;19.69;101999.98;1611313;87;20182;-75
2021/10/09 14:12:23;;;;;;;;;;;;;;;31.12;18.76;101994.77;1613911;87;20165;-76
2021/10/09 14:14:50;;;;;;;;;;;;;;;29.99;19.26;101990.84;1611798;87;20169;-73
2021/10/09 14:17:16;;;;;;;;;;;;;;;30.37;19.64;101994.00;1612640;87;20298;-76
2021/10/09 14:19:42;;;;;;;;;;;;;;;28.52;21.27;101993.34;1612700;87;20142;-76
2021/10/09 14:22:07;;;;;;;;;;;;;;;27.96;22.71;101989.09;1612387;87;20225;-72
2021/10/09 14:24:33;;;;;;;;;;;;;;;28.47;20.99;101991.86;1610248;88;20167;-77
2021/10/09 14:27:01;;;;;;;;;;;;;;;29.54;19.93;101987.42;1613911;88;21915;-73
2021/10/09 14:29:26;;;;;;;;;;;;;;;30.05;19.71;101987.15;1612609;88;21080;-71
2021/10/09 14:31:52;;;;;;;;;;;;;;;30.80;19.03;101989.88;1612051;88;20176;-74
2021/10/09 14:34:19;;;;;;;;;;;;;;;31.44;18.15;101986.77;1611635;87;20462;-77
2021/10/09 14:36:45;;;;;;;;;;;;;;;31.68;17.67;101993.39;1607197;88;20131;-76
2021/10/09 14:39:12;;;;;;;;;;;;;;;32.16;17.49;101983.63;1610778;88;21000;-73
2021/10/09 14:41:38;;;;;;;;;;;;;;;31.98;17.07;101988.85;1615255;88;20174;-73
2021/10/09 14:44:03;;;;;;;;;;;;;;;31.92;17.49;101982.23;1590340;88;20162;-76
2021/10/09 14:49:16;;;;;;;;;;;;;;;31.66;17.61;101984.63;1558767;90;20234;-74
2021/10/09 15:02:39;;;;;;;;;;;;;;;28.73;20.29;101970.27;1607681;87;20245;-73
2021/10/09 15:18:27;;;;;;;;;;;;;;;24.71;24.99;101965.92;1607727;87;20346;-73
2021/10/09 15:20:55;;;;;;;;;;;;;;;24.33;25.67;101965.92;1611807;87;20161;-73
2021/10/09 15:23:21;;;;;;;;;;;;;;;23.86;26.45;101968.13;1613103;87;20228;-73